Time;durP1;ratioP1;P1;durP2;ratioP2;P2;SDS_P1;SDS_P2;PMS_P1;PMS_P2;Temp;Humidity;BMP_temperature;BMP_pressure;BME280_temperature;BME280_humidity;BME280_pressure;Samples;Min_cycle;Max_cycle;Signal;HPM_P1;HPM_P2
2023/07/06 00:05:22;;;;;;;7.60;5.47;;;17.20;99.90;;;;;;10318991;28;20543;-81
2023/07/06 00:10:45;;;;;;;7.07;6.15;;;17.20;99.90;;;;;;10340142;28;20609;-81
2023/07/06 00:16:07;;;;;;;7.75;5.57;;;17.30;99.90;;;;;;10354210;28;20244;-81
2023/07/06 00:21:32;;;;;;;6.90;4.97;;;17.20;99.90;;;;;;10332620;28;20318;-82
2023/07/06 00:26:53;;;;;;;7.00;5.70;;;17.20;99.90;;;;;;10299759;28;20233;-81
2023/07/06 00:32:26;;;;;;;13.15;9.43;;;17.10;99.90;;;;;;10286636;28;20228;-82
2023/07/06 00:37:49;;;;;;;10.18;7.03;;;16.90;99.90;;;;;;10312214;28;20288;-81
2023/07/06 00:43:12;;;;;;;9.20;6.70;;;16.90;99.90;;;;;;10339481;28;20288;-82
2023/07/06 00:48:37;;;;;;;5.88;5.13;;;16.80;99.90;;;;;;10337904;28;20566;-81
2023/07/06 00:54:09;;;;;;;6.65;5.60;;;16.70;99.90;;;;;;10342355;28;20198;-83
2023/07/06 00:59:33;;;;;;;8.95;5.47;;;16.70;99.90;;;;;;10327178;28;20213;-83
2023/07/06 01:04:54;;;;;;;6.38;4.93;;;16.60;99.90;;;;;;10306896;28;20216;-81
2023/07/06 01:10:16;;;;;;;7.57;5.78;;;16.50;99.90;;;;;;10323851;28;20324;-80
2023/07/06 01:15:56;;;;;;;6.40;5.22;;;16.30;99.90;;;;;;10320628;28;20209;-81
2023/07/06 01:21:28;;;;;;;5.30;4.32;;;16.10;99.90;;;;;;10320383;28;20282;-83
2023/07/06 01:27:09;;;;;;;4.60;3.90;;;16.10;99.90;;;;;;10330054;28;20552;-81
2023/07/06 01:32:36;;;;;;;4.90;3.78;;;16.10;99.90;;;;;;10319632;28;20201;-81
2023/07/06 01:37:59;;;;;;;5.00;4.47;;;16.10;99.90;;;;;;10325039;28;20205;-82
2023/07/06 01:43:21;;;;;;;5.88;4.82;;;16.10;99.90;;;;;;10365462;28;20292;-81
2023/07/06 01:48:43;;;;;;;6.28;4.97;;;16.00;99.90;;;;;;10334248;28;20230;-81
2023/07/06 01:54:13;;;;;;;4.65;4.25;;;16.00;99.90;;;;;;10358935;28;20203;-80
2023/07/06 01:59:38;;;;;;;5.53;4.32;;;16.00;99.90;;;;;;10329730;28;20212;-83
2023/07/06 02:05:02;;;;;;;5.95;4.32;;;15.80;99.90;;;;;;10291255;28;20352;-80
2023/07/06 02:10:23;;;;;;;5.90;4.63;;;15.80;99.90;;;;;;10290870;28;20247;-80
2023/07/06 02:15:45;;;;;;;4.90;4.40;;;15.70;99.90;;;;;;10333156;28;20279;-81
2023/07/06 02:21:07;;;;;;;5.55;4.47;;;15.60;99.90;;;;;;10321552;28;20200;-80
2023/07/06 02:26:28;;;;;;;5.68;4.05;;;15.60;99.90;;;;;;10305698;28;20226;-83
2023/07/06 02:31:49;;;;;;;4.28;3.88;;;15.50;99.90;;;;;;10333520;28;20568;-81
2023/07/06 02:37:11;;;;;;;6.63;4.78;;;15.50;99.90;;;;;;10318294;28;20197;-81
2023/07/06 02:42:34;;;;;;;6.82;5.45;;;;;;;;;;10352520;28;20214;-80
2023/07/06 02:47:58;;;;;;;8.50;5.70;;;15.50;99.90;;;;;;10352260;28;20442;-79
2023/07/06 02:53:20;;;;;;;6.65;4.70;;;15.50;99.90;;;;;;10370605;28;20194;-79
2023/07/06 02:58:42;;;;;;;5.80;4.38;;;15.30;99.90;;;;;;10341240;28;20499;-80
2023/07/06 03:04:09;;;;;;;5.05;4.43;;;15.10;99.90;;;;;;10315991;28;20410;-81
2023/07/06 03:09:31;;;;;;;7.57;6.03;;;15.20;99.90;;;;;;10302368;28;20328;-79
2023/07/06 03:14:52;;;;;;;5.47;4.13;;;15.10;99.90;;;;;;10328143;28;20231;-79
2023/07/06 03:20:14;;;;;;;6.88;4.20;;;15.10;99.90;;;;;;10341798;28;20563;-79
2023/07/06 03:25:35;;;;;;;5.05;4.38;;;15.10;99.90;;;;;;10354221;28;20250;-80
2023/07/06 03:30:58;;;;;;;8.38;5.15;;;15.20;99.90;;;;;;10330711;28;20509;-80
2023/07/06 03:36:20;;;;;;;6.07;5.13;;;15.40;99.90;;;;;;10355086;28;20200;-79
2023/07/06 03:41:42;;;;;;;8.48;5.45;;;15.50;99.90;;;;;;10351604;28;20197;-80
2023/07/06 03:47:03;;;;;;;6.18;4.82;;;15.60;99.90;;;;;;10334794;28;20231;-81
2023/07/06 03:52:27;;;;;;;5.40;4.40;;;15.60;99.90;;;;;;10354679;28;20275;-80
2023/07/06 03:57:49;;;;;;;8.07;4.35;;;15.60;99.90;;;;;;10354961;28;20195;-84
2023/07/06 04:03:18;;;;;;;5.20;4.10;;;15.60;99.90;;;;;;10341636;28;20429;-79
2023/07/06 04:08:40;;;;;;;4.32;3.70;;;15.60;99.90;;;;;;10354022;28;20632;-79
2023/07/06 04:14:02;;;;;;;5.47;3.20;;;15.70;99.90;;;;;;10343062;28;20369;-79
2023/07/06 04:19:24;;;;;;;8.68;3.50;;;15.60;99.90;;;;;;10300649;28;20199;-81
2023/07/06 04:24:45;;;;;;;8.88;3.33;;;15.50;99.90;;;;;;10313875;28;20428;-80
2023/07/06 04:30:10;;;;;;;6.65;2.75;;;15.50;99.90;;;;;;10333007;28;20434;-80
2023/07/06 04:35:32;;;;;;;4.80;2.78;;;15.60;1.00;;;;;;10349034;28;20199;-83
2023/07/06 04:40:53;;;;;;;13.18;3.10;;;15.60;1.00;;;;;;10337106;28;20280;-83
2023/07/06 04:46:14;;;;;;;4.57;2.58;;;15.50;1.00;;;;;;10319263;28;20224;-83
2023/07/06 04:51:37;;;;;;;4.45;2.40;;;15.60;1.00;;;;;;10321913;28;20199;-82
2023/07/06 04:56:58;;;;;;;4.28;2.63;;;15.60;1.00;;;;;;10312672;28;20196;-81
2023/07/06 05:02:22;;;;;;;6.35;2.30;;;15.70;99.90;;;;;;10307511;28;20232;-80
2023/07/06 05:07:45;;;;;;;5.55;2.67;;;15.60;99.90;;;;;;10334422;28;20248;-81
2023/07/06 05:13:06;;;;;;;4.65;2.47;;;15.60;99.90;;;;;;10316777;28;20259;-83
2023/07/06 05:18:29;;;;;;;4.75;2.78;;;15.70;85.90;;;;;;10360504;28;20214;-81
2023/07/06 05:23:50;;;;;;;5.65;2.58;;;15.80;39.00;;;;;;10360826;28;20276;-84
2023/07/06 05:29:12;;;;;;;4.55;2.20;;;15.90;1.00;;;;;;10331437;28;20454;-83
2023/07/06 05:34:33;;;;;;;5.13;2.10;;;16.00;1.00;;;;;;10368368;28;20204;-82
2023/07/06 05:39:54;;;;;;;4.78;2.08;;;16.20;1.00;;;;;;10365243;28;20210;-82
2023/07/06 05:45:15;;;;;;;5.15;2.10;;;16.20;1.00;;;;;;10352222;28;20227;-82
2023/07/06 05:50:37;;;;;;;3.35;1.90;;;16.30;1.00;;;;;;10334918;28;20204;-81
2023/07/06 05:55:59;;;;;;;3.97;1.58;;;16.30;1.00;;;;;;10335146;28;20205;-82
2023/07/06 06:01:25;;;;;;;5.25;2.05;;;16.40;1.00;;;;;;10341881;28;20199;-80
2023/07/06 06:06:52;;;;;;;5.68;2.45;;;16.60;1.00;;;;;;10324823;28;20269;-81
2023/07/06 06:12:18;;;;;;;5.60;1.98;;;16.90;99.90;;;;;;10333682;28;20208;-84
2023/07/06 06:17:40;;;;;;;7.78;2.20;;;17.00;99.90;;;;;;10359279;28;20199;-82
2023/07/06 06:23:01;;;;;;;3.08;1.60;;;17.10;99.90;;;;;;10359138;28;20244;-80
2023/07/06 06:28:22;;;;;;;3.67;1.70;;;17.40;99.90;;;;;;10355175;28;20224;-79
2023/07/06 06:33:47;;;;;;;3.78;1.40;;;17.60;99.90;;;;;;10348690;28;20201;-79
2023/07/06 06:39:09;;;;;;;3.85;1.45;;;17.90;1.00;;;;;;10357199;28;20204;-80
2023/07/06 06:44:31;;;;;;;1.98;1.20;;;18.20;1.00;;;;;;10324918;28;20441;-83
2023/07/06 06:49:52;;;;;;;2.17;1.35;;;18.60;1.00;;;;;;10356978;28;20270;-80
2023/07/06 06:55:14;;;;;;;6.28;1.45;;;19.00;1.00;;;;;;10338295;28;20196;-78
2023/07/06 07:00:39;;;;;;;2.65;1.20;;;;;;;;;;10356423;28;20481;-80
2023/07/06 07:06:12;;;;;;;2.03;1.30;;;19.80;99.90;;;;;;10347365;28;20257;-80
2023/07/06 07:11:34;;;;;;;1.60;1.05;;;20.60;99.90;;;;;;10342364;28;20207;-81
2023/07/06 07:16:55;;;;;;;4.07;1.35;;;21.00;1.00;;;;;;10342168;28;20204;-81
2023/07/06 07:22:16;;;;;;;3.92;1.42;;;21.30;1.00;;;;;;10364682;28;20201;-84
2023/07/06 07:27:38;;;;;;;2.33;1.17;;;21.70;1.00;;;;;;10341557;28;20280;-81
2023/07/06 07:33:01;;;;;;;7.95;1.42;;;22.20;99.90;;;;;;10328698;28;20236;-82
2023/07/06 07:38:22;;;;;;;2.90;1.33;;;22.40;1.00;;;;;;10346314;28;20217;-81
2023/07/06 07:43:46;;;;;;;2.22;1.52;;;22.80;1.00;;;;;;10350505;28;20206;-82
2023/07/06 07:49:07;;;;;;;2.75;1.52;;;23.00;1.00;;;;;;10344960;28;20241;-82
2023/07/06 07:54:29;;;;;;;4.10;1.30;;;23.50;1.00;;;;;;10349614;28;20217;-82
2023/07/06 07:59:50;;;;;;;2.53;1.27;;;23.70;99.90;;;;;;10335537;28;20205;-83
2023/07/06 08:05:12;;;;;;;3.13;1.33;;;23.90;99.90;;;;;;10334716;28;20213;-86
2023/07/06 08:10:40;;;;;;;4.75;1.50;;;24.30;99.90;;;;;;10334746;28;20773;-80
2023/07/06 08:16:03;;;;;;;3.08;1.50;;;24.60;99.90;;;;;;10348552;28;20205;-81
2023/07/06 08:21:25;;;;;;;2.10;1.63;;;24.30;99.90;;;;;;10345268;28;20202;-83
2023/07/06 08:26:46;;;;;;;3.80;1.27;;;24.40;99.90;;;;;;10336383;28;20229;-85
2023/07/06 08:32:08;;;;;;;3.05;1.50;;;24.50;99.90;;;;;;10346364;28;20256;-85
2023/07/06 08:37:30;;;;;;;4.20;1.60;;;24.50;99.90;;;;;;10346600;28;20229;-83
2023/07/06 08:42:53;;;;;;;2.75;1.40;;;24.80;99.90;;;;;;10328963;28;20202;-84
2023/07/06 08:48:17;;;;;;;2.63;1.70;;;25.10;99.90;;;;;;10338633;28;20230;-82
2023/07/06 08:54:10;;;;;;;4.47;2.45;;;25.30;99.90;;;;;;10308320;28;20186;-80
2023/07/06 08:59:46;;;;;;;4.03;3.08;;;25.50;99.90;;;;;;10324029;28;20207;-78
2023/07/06 09:05:13;;;;;;;8.38;3.10;;;25.90;99.90;;;;;;10327593;28;20218;-83
2023/07/06 09:10:34;;;;;;;2.28;1.63;;;25.70;99.90;;;;;;10315726;28;20265;-81
2023/07/06 09:16:00;;;;;;;2.75;1.52;;;25.60;99.90;;;;;;10308804;28;20202;-85
2023/07/06 09:21:25;;;;;;;1.73;1.20;;;25.60;99.90;;;;;;10309634;28;20280;-77
2023/07/06 09:26:47;;;;;;;10.35;5.93;;;25.30;99.90;;;;;;10320191;28;20230;-86
2023/07/06 09:32:24;;;;;;;5.80;2.15;;;25.70;99.90;;;;;;10345586;28;20256;-85
2023/07/06 09:37:51;;;;;;;13.05;4.50;;;25.70;99.90;;;;;;10354717;28;20236;-81
2023/07/06 09:53:34;;;;;;;3.08;1.58;;;25.90;99.90;;;;;;10550547;27;20555;-79
2023/07/06 09:58:57;;;;;;;3.83;1.90;;;26.50;99.90;;;;;;10532941;28;20552;-79
2023/07/06 10:04:54;;;;;;;1.95;1.60;;;26.90;99.90;;;;;;10550983;28;20269;-78
2023/07/06 10:10:33;;;;;;;1.40;1.30;;;26.60;99.90;;;;;;10534925;28;20222;-82
2023/07/06 10:16:16;;;;;;;2.83;1.67;;;26.90;99.90;;;;;;10578038;28;20391;-82
2023/07/06 10:21:45;;;;;;;2.45;1.40;;;27.10;99.90;;;;;;10576566;28;20236;-87
2023/07/06 10:27:18;;;;;;;2.75;1.48;;;27.40;99.90;;;;;;10557160;28;20210;-84
2023/07/06 10:32:44;;;;;;;2.80;1.40;;;27.20;99.90;;;;;;10548576;28;20230;-81
2023/07/06 10:38:10;;;;;;;3.25;1.40;;;25.90;1.00;;;;;;10539031;28;20186;-83
2023/07/06 10:43:31;;;;;;;1.85;1.42;;;25.60;1.00;;;;;;10553311;28;20260;-80
2023/07/06 10:48:59;;;;;;;2.85;1.90;;;24.80;99.90;;;;;;10546530;28;20283;-77
2023/07/06 10:54:26;;;;;;;3.75;1.13;;;25.00;99.90;;;;;;10548341;28;20203;-78
2023/07/06 10:59:48;;;;;;;2.33;1.52;;;25.50;99.90;;;;;;10518563;28;20207;-84
2023/07/06 11:05:30;;;;;;;4.05;1.90;;;25.60;99.90;;;;;;10451933;28;20216;-87
2023/07/06 11:10:53;;;;;;;2.28;1.55;;;25.80;99.90;;;;;;10421943;28;20298;-81
2023/07/06 11:16:22;;;;;;;1.92;1.42;;;26.00;99.90;;;;;;10462724;28;20289;-86
2023/07/06 11:21:47;;;;;;;2.00;1.40;;;26.10;99.90;;;;;;10422320;28;20197;-82
2023/07/06 11:27:31;;;;;;;4.65;3.22;;;26.20;99.90;;;;;;10473917;28;20200;-84
2023/07/06 11:33:06;;;;;;;3.15;2.13;;;26.00;99.90;;;;;;10452043;28;20234;-77
2023/07/06 11:39:11;;;;;;;1.95;1.75;;;25.30;99.90;;;;;;10451783;28;20197;-78
2023/07/06 11:44:50;;;;;;;2.00;1.60;;;24.70;99.90;;;;;;10390044;28;20226;-77
2023/07/06 11:50:16;;;;;;;5.43;1.42;;;25.10;99.90;;;;;;10382466;28;20241;-78
2023/07/06 11:55:50;;;;;;;2.95;1.52;;;25.40;99.90;;;;;;10323947;28;20221;-78
2023/07/06 12:01:33;;;;;;;3.28;1.45;;;25.10;99.90;;;;;;10332359;28;20216;-77
2023/07/06 12:06:57;;;;;;;2.63;1.40;;;24.60;99.90;;;;;;10336725;28;20244;-84
2023/07/06 12:12:23;;;;;;;3.20;1.50;;;25.30;99.90;;;;;;10398676;28;20282;-80
2023/07/06 12:17:48;;;;;;;1.50;1.40;;;25.70;99.90;;;;;;10441866;28;20223;-78
2023/07/06 12:23:11;;;;;;;3.97;1.50;;;25.40;99.90;;;;;;10471952;28;20212;-78
2023/07/06 12:28:32;;;;;;;5.03;1.20;;;24.70;99.90;;;;;;10477839;28;20199;-82
2023/07/06 12:33:56;;;;;;;3.22;1.70;;;25.10;99.90;;;;;;10451876;28;20239;-82
2023/07/06 12:39:20;;;;;;;1.30;1.13;;;25.40;99.90;;;;;;10458549;28;20211;-82
2023/07/06 12:44:43;;;;;;;4.20;1.50;;;25.20;99.90;;;;;;10471605;28;20279;-76
2023/07/06 12:50:19;;;;;;;3.90;1.38;;;24.80;99.90;;;;;;10470303;28;20315;-79
2023/07/06 12:55:46;;;;;;;1.70;1.45;;;24.70;99.90;;;;;;10438742;28;20192;-83
2023/07/06 13:01:11;;;;;;;3.03;1.40;;;24.80;99.90;;;;;;10445047;28;20283;-86
2023/07/06 13:06:32;;;;;;;3.25;1.98;;;24.80;99.90;;;;;;10450672;28;20518;-81
2023/07/06 13:11:58;;;;;;;1.65;1.30;;;24.70;99.90;;;;;;10470593;28;20228;-85
2023/07/06 13:17:25;;;;;;;7.07;2.10;;;24.50;99.90;;;;;;10417788;28;20285;-78
2023/07/06 13:22:46;;;;;;;1.40;1.20;;;25.10;99.90;;;;;;10469082;28;20200;-79
2023/07/06 13:28:12;;;;;;;3.15;1.48;;;25.90;99.90;;;;;;10431170;28;20231;-83
2023/07/06 13:33:41;;;;;;;3.08;1.60;;;26.10;99.90;;;;;;10458729;28;20536;-80
2023/07/06 13:39:06;;;;;;;3.17;1.60;;;25.90;99.90;;;;;;10470514;28;20211;-80
2023/07/06 13:44:27;;;;;;;2.65;1.38;;;25.80;99.90;;;;;;10485864;28;20204;-84
2023/07/06 13:49:50;;;;;;;1.65;1.17;;;25.70;99.90;;;;;;10474125;28;20252;-81
2023/07/06 13:55:23;;;;;;;1.92;1.63;;;25.20;99.90;;;;;;10419199;28;20189;-78
2023/07/06 14:00:47;;;;;;;12.65;1.42;;;25.40;99.90;;;;;;10447658;28;20188;-80
2023/07/06 14:06:10;;;;;;;1.70;1.50;;;25.40;99.90;;;;;;10470036;28;20508;-88
2023/07/06 14:11:32;;;;;;;6.38;1.52;;;25.00;99.90;;;;;;10463678;28;20246;-79
2023/07/06 14:16:53;;;;;;;3.00;1.88;;;25.00;99.90;;;;;;10434955;28;20275;-80
2023/07/06 14:22:14;;;;;;;8.85;1.60;;;25.00;99.90;;;;;;10447657;28;20213;-78
2023/07/06 14:27:35;;;;;;;4.03;1.88;;;25.20;99.90;;;;;;10429942;28;20196;-82
2023/07/06 14:32:58;;;;;;;1.98;1.35;;;25.00;99.90;;;;;;10447764;28;20228;-81
2023/07/06 14:38:21;;;;;;;2.42;1.25;;;24.80;99.90;;;;;;10476129;28;20200;-80
2023/07/06 14:43:42;;;;;;;1.98;1.30;;;24.60;99.90;;;;;;10479394;28;20377;-82
2023/07/06 14:49:05;;;;;;;1.83;1.35;;;;;;;;;;10479082;28;20550;-78
2023/07/06 14:54:26;;;;;;;3.22;1.30;;;24.20;1.00;;;;;;10469042;28;20282;-79
2023/07/06 14:59:47;;;;;;;1.27;1.17;;;24.10;99.90;;;;;;10459628;28;20200;-84
2023/07/06 15:05:09;;;;;;;1.85;1.50;;;24.00;99.90;;;;;;10445865;28;20220;-89
2023/07/06 15:10:30;;;;;;;3.83;1.67;;;23.80;1.00;;;;;;10441696;28;20224;-89
2023/07/06 15:15:52;;;;;;;2.55;1.45;;;23.90;99.90;;;;;;10427276;28;20199;-85
2023/07/06 15:21:18;;;;;;;3.00;1.95;;;24.20;99.90;;;;;;10423840;28;20219;-87
2023/07/06 15:26:39;;;;;;;1.58;1.45;;;24.00;98.80;;;;;;10426486;28;20203;-88
2023/07/06 15:32:01;;;;;;;2.33;2.00;;;23.90;99.90;;;;;;10435574;28;20227;-86
2023/07/06 15:37:23;;;;;;;5.97;1.75;;;23.80;99.90;;;;;;10461117;28;20246;-88
2023/07/06 15:42:44;;;;;;;1.92;1.35;;;23.70;99.90;;;;;;10468465;28;20188;-88
2023/07/06 15:48:05;;;;;;;5.07;1.58;;;23.70;99.90;;;;;;10463067;28;20210;-87
2023/07/06 15:53:27;;;;;;;2.63;1.45;;;23.60;99.90;;;;;;10470290;28;20232;-87
2023/07/06 15:59:03;;;;;;;2.35;1.55;;;23.50;99.90;;;;;;10469082;28;20506;-91
2023/07/06 16:04:24;;;;;;;3.53;1.50;;;23.40;99.90;;;;;;10477489;28;20383;-91
2023/07/06 16:09:46;;;;;;;1.75;1.60;;;23.30;99.90;;;;;;10466834;28;20242;-91
2023/07/06 16:15:08;;;;;;;2.47;1.83;;;23.10;99.90;;;;;;10467097;28;20203;-83
2023/07/06 16:20:32;;;;;;;4.97;1.35;;;23.00;99.90;;;;;;10451688;28;20295;-83
2023/07/06 16:26:10;;;;;;;1.60;1.50;;;22.90;99.90;;;;;;10466503;28;20203;-89
2023/07/06 16:31:32;;;;;;;1.80;1.38;;;22.70;99.90;;;;;;10480434;28;20238;-84
2023/07/06 16:36:54;;;;;;;1.75;1.40;;;22.60;99.90;;;;;;10451368;28;20200;-82
2023/07/06 16:42:15;;;;;;;2.05;1.20;;;22.60;99.90;;;;;;10452643;28;20249;-89
2023/07/06 16:47:37;;;;;;;1.60;1.27;;;22.60;99.90;;;;;;10465486;28;20238;-87
2023/07/06 16:52:58;;;;;;;2.05;1.40;;;22.70;99.90;;;;;;10457122;28;20235;-90
2023/07/06 16:58:19;;;;;;;2.13;1.48;;;22.70;99.90;;;;;;10464359;28;20192;-83
2023/07/06 17:03:41;;;;;;;2.28;1.38;;;22.70;99.90;;;;;;10459351;28;20271;-88
2023/07/06 17:09:02;;;;;;;1.90;1.55;;;22.70;99.90;;;;;;10456986;28;20406;-87
2023/07/06 17:14:24;;;;;;;3.22;1.80;;;22.60;99.90;;;;;;10478568;28;20211;-85
2023/07/06 17:19:46;;;;;;;3.65;1.90;;;22.70;99.90;;;;;;10437719;28;20234;-84
2023/07/06 17:25:07;;;;;;;3.47;1.83;;;22.70;99.90;;;;;;10437067;28;20203;-85
2023/07/06 17:30:29;;;;;;;6.13;1.80;;;22.60;99.90;;;;;;10444298;28;20300;-83
2023/07/06 17:35:50;;;;;;;4.60;2.10;;;22.50;99.90;;;;;;10435778;28;20196;-92
2023/07/06 17:41:13;;;;;;;3.78;2.03;;;22.10;99.90;;;;;;10416359;28;20198;-85
2023/07/06 17:46:34;;;;;;;6.53;2.38;;;21.80;99.90;;;;;;10463009;28;20204;-81
2023/07/06 17:51:56;;;;;;;3.50;2.45;;;21.40;99.90;;;;;;10457180;28;20293;-83
2023/07/06 17:57:17;;;;;;;5.05;2.85;;;21.20;99.90;;;;;;10472329;28;20249;-82
2023/07/06 18:02:38;;;;;;;3.40;2.45;;;21.10;99.90;;;;;;10462908;28;20270;-83
2023/07/06 18:08:00;;;;;;;13.30;6.43;;;21.00;99.90;;;;;;10467122;28;20192;-87
2023/07/06 18:13:21;;;;;;;9.02;3.17;;;20.80;1.00;;;;;;10457198;28;20220;-84
2023/07/06 18:18:43;;;;;;;5.78;2.80;;;20.60;1.00;;;;;;10443099;28;20491;-88
2023/07/06 18:24:04;;;;;;;7.30;3.28;;;20.50;1.00;;;;;;10460709;28;20206;-89
2023/07/06 18:29:26;;;;;;;5.60;3.40;;;20.20;1.00;;;;;;10483836;28;20191;-83
2023/07/06 18:34:47;;;;;;;4.85;2.90;;;19.90;99.80;;;;;;10466661;28;20219;-85
2023/07/06 18:40:09;;;;;;;6.63;3.50;;;19.70;99.90;;;;;;10428897;28;20513;-90
2023/07/06 18:45:30;;;;;;;4.65;3.00;;;19.70;99.90;;;;;;10431252;28;20207;-89
2023/07/06 18:50:57;;;;;;;6.88;3.88;;;19.60;99.90;;;;;;10456304;28;20322;-87
2023/07/06 18:56:18;;;;;;;8.38;3.72;;;19.60;99.90;;;;;;10447156;28;20286;-82
2023/07/06 19:01:39;;;;;;;5.68;3.33;;;19.40;99.90;;;;;;10426841;28;20211;-83
2023/07/06 19:07:02;;;;;;;5.95;3.22;;;19.20;1.00;;;;;;10456466;28;20271;-90
2023/07/06 19:12:23;;;;;;;7.20;3.60;;;19.10;1.00;;;;;;10461599;28;20223;-89
2023/07/06 19:17:45;;;;;;;7.30;4.40;;;19.10;1.00;;;;;;10460635;28;20180;-82
2023/07/06 19:23:07;;;;;;;8.68;3.35;;;18.90;1.00;;;;;;10440667;28;20628;-89
2023/07/06 19:28:28;;;;;;;6.10;3.58;;;18.90;1.00;;;;;;10427055;28;20198;-88
2023/07/06 19:33:49;;;;;;;6.20;3.63;;;18.80;1.00;;;;;;10459037;28;20477;-83
2023/07/06 19:39:12;;;;;;;6.25;3.75;;;18.80;1.00;;;;;;10444451;28;20199;-82
2023/07/06 19:44:33;;;;;;;7.07;3.65;;;18.70;1.00;;;;;;10467430;28;20204;-84
2023/07/06 19:49:55;;;;;;;6.40;3.72;;;18.70;94.50;;;;;;10462279;28;20596;-85
2023/07/06 19:55:16;;;;;;;5.32;3.53;;;18.50;99.90;;;;;;10446302;28;20212;-89
2023/07/06 20:00:38;;;;;;;7.85;4.28;;;18.50;99.90;;;;;;10451342;28;20323;-84
2023/07/06 20:06:00;;;;;;;8.52;4.70;;;18.40;99.90;;;;;;10463746;28;20202;-90
2023/07/06 20:11:22;;;;;;;6.03;4.28;;;18.30;1.00;;;;;;10458388;28;20307;-85
2023/07/06 20:16:43;;;;;;;8.25;4.38;;;18.40;1.00;;;;;;10476208;28;20219;-90
2023/07/06 20:22:05;;;;;;;6.30;3.88;;;18.40;1.00;;;;;;10444041;28;20339;-88
2023/07/06 20:27:26;;;;;;;7.93;4.10;;;18.40;1.00;;;;;;10477387;28;20202;-84
2023/07/06 20:32:48;;;;;;;9.70;4.28;;;18.30;1.00;;;;;;10453880;28;20254;-88
2023/07/06 20:38:09;;;;;;;4.68;3.95;;;18.30;1.00;;;;;;10471680;28;20208;-81
2023/07/06 20:43:31;;;;;;;5.28;4.38;;;18.20;1.00;;;;;;10430721;28;20506;-85
2023/07/06 20:48:52;;;;;;;5.28;4.25;;;18.10;1.00;;;;;;10479716;28;20223;-84
2023/07/06 20:54:13;;;;;;;8.07;5.45;;;18.10;1.00;;;;;;10464762;28;20238;-85
2023/07/06 20:59:34;;;;;;;12.80;6.78;;;18.10;1.00;;;;;;10470926;28;20552;-91
2023/07/06 21:04:55;;;;;;;7.55;5.15;;;18.20;1.00;;;;;;10448601;28;20227;-83
2023/07/06 21:10:17;;;;;;;9.57;5.75;;;18.10;1.00;;;;;;10448696;28;20208;-83
2023/07/06 21:15:38;;;;;;;10.57;5.68;;;18.10;99.90;;;;;;10438830;28;20204;-91
2023/07/06 21:21:00;;;;;;;8.80;5.20;;;18.00;1.00;;;;;;10437501;28;20515;-88
2023/07/06 21:26:21;;;;;;;9.90;5.55;;;18.10;54.50;;;;;;10450772;28;20246;-90
2023/07/06 21:31:43;;;;;;;8.18;4.78;;;18.00;99.90;;;;;;10443505;28;20224;-83
2023/07/06 21:37:04;;;;;;;7.85;5.88;;;18.10;1.00;;;;;;10435766;28;20192;-86
2023/07/06 21:42:26;;;;;;;9.73;6.72;;;18.20;1.00;;;;;;10420990;28;20218;-89
2023/07/06 21:47:47;;;;;;;11.88;8.60;;;18.20;1.00;;;;;;10452224;28;20271;-83
2023/07/06 21:53:08;;;;;;;9.57;6.82;;;18.30;1.00;;;;;;10421848;28;20255;-89
2023/07/06 21:58:29;;;;;;;9.30;5.70;;;18.20;1.00;;;;;;10434247;28;20218;-83
2023/07/06 22:03:51;;;;;;;11.52;5.50;;;18.10;99.90;;;;;;10463095;28;20232;-83
2023/07/06 22:09:13;;;;;;;6.95;4.72;;;18.00;99.90;;;;;;10457460;28;20207;-82
2023/07/06 22:14:34;;;;;;;10.88;6.00;;;18.00;99.90;;;;;;10476510;28;20475;-87
2023/07/06 22:19:56;;;;;;;13.60;7.45;;;17.90;1.00;;;;;;10448628;28;20510;-87
2023/07/06 22:25:17;;;;;;;13.02;7.60;;;17.70;1.00;;;;;;10447595;28;20421;-83
2023/07/06 22:30:40;;;;;;;14.63;8.80;;;17.50;1.00;;;;;;10476177;28;20228;-84
2023/07/06 22:36:01;;;;;;;16.45;8.95;;;17.30;1.00;;;;;;10456758;28;20257;-83
2023/07/06 22:41:22;;;;;;;14.60;8.05;;;17.20;38.60;;;;;;10432696;28;20246;-88
2023/07/06 22:46:44;;;;;;;18.55;7.75;;;17.10;99.90;;;;;;10420923;28;20208;-85
2023/07/06 22:52:06;;;;;;;10.45;7.32;;;17.10;1.00;;;;;;10433410;28;20264;-82
2023/07/06 22:57:28;;;;;;;12.13;7.13;;;17.00;1.00;;;;;;10449804;28;20551;-83
2023/07/06 23:02:53;;;;;;;9.65;6.95;;;17.00;1.00;;;;;;10483343;28;20196;-84
2023/07/06 23:08:15;;;;;;;12.10;7.60;;;16.90;1.00;;;;;;10454395;28;20198;-83
2023/07/06 23:13:36;;;;;;;9.63;6.63;;;16.70;1.00;;;;;;10442373;28;20223;-87
2023/07/06 23:18:59;;;;;;;9.52;6.45;;;16.70;1.00;;;;;;10450594;28;20394;-90
2023/07/06 23:24:20;;;;;;;11.43;6.28;;;16.60;1.00;;;;;;10461675;28;20284;-84
2023/07/06 23:29:43;;;;;;;9.25;6.00;;;16.60;1.00;;;;;;10454613;28;20218;-83
2023/07/06 23:35:14;;;;;;;9.48;5.82;;;16.50;1.00;;;;;;10426445;28;20670;-91
2023/07/06 23:40:36;;;;;;;7.15;6.07;;;16.40;99.90;;;;;;10426978;28;20227;-83
2023/07/06 23:45:57;;;;;;;8.88;5.55;;;16.40;1.00;;;;;;10463372;28;20287;-89
2023/07/06 23:51:21;;;;;;;11.40;6.57;;;16.30;1.00;;;;;;10461533;28;20241;-82
2023/07/06 23:56:42;;;;;;;8.88;6.00;;;16.20;99.90;;;;;;10436270;28;20282;-90
